sensor_id;sensor_type;location;lat;lon;timestamp;P1;durP1;ratioP1;P2;durP2;ratioP2
42912;SDS011;50720;54.324;18.558;2023-07-13T00:00:35;7.22;;;4.57;;
42912;SDS011;50720;54.324;18.558;2023-07-13T00:03:25;5.47;;;4.80;;
42912;SDS011;50720;54.324;18.558;2023-07-13T00:05:59;7.35;;;4.70;;
42912;SDS011;50720;54.324;18.558;2023-07-13T00:08:30;6.03;;;4.47;;
42912;SDS011;50720;54.324;18.558;2023-07-13T00:11:01;6.20;;;4.45;;
42912;SDS011;50720;54.324;18.558;2023-07-13T00:13:33;8.00;;;5.05;;
42912;SDS011;50720;54.324;18.558;2023-07-13T00:16:05;7.20;;;5.00;;
42912;SDS011;50720;54.324;18.558;2023-07-13T00:18:36;10.07;;;5.00;;
42912;SDS011;50720;54.324;18.558;2023-07-13T00:21:06;7.85;;;5.10;;
42912;SDS011;50720;54.324;18.558;2023-07-13T00:23:37;6.10;;;4.60;;
42912;SDS011;50720;54.324;18.558;2023-07-13T00:26:09;9.85;;;5.07;;
42912;SDS011;50720;54.324;18.558;2023-07-13T00:28:42;7.65;;;5.15;;
42912;SDS011;50720;54.324;18.558;2023-07-13T00:31:12;8.02;;;4.95;;
42912;SDS011;50720;54.324;18.558;2023-07-13T00:33:43;7.70;;;4.82;;
42912;SDS011;50720;54.324;18.558;2023-07-13T00:36:13;11.03;;;4.80;;
42912;SDS011;50720;54.324;18.558;2023-07-13T00:38:44;7.40;;;5.47;;
42912;SDS011;50720;54.324;18.558;2023-07-13T00:41:14;8.55;;;4.90;;
42912;SDS011;50720;54.324;18.558;2023-07-13T00:43:46;9.82;;;5.50;;
42912;SDS011;50720;54.324;18.558;2023-07-13T00:46:17;7.60;;;5.53;;
42912;SDS011;50720;54.324;18.558;2023-07-13T00:48:53;10.50;;;5.35;;
42912;SDS011;50720;54.324;18.558;2023-07-13T00:51:30;7.00;;;5.07;;
42912;SDS011;50720;54.324;18.558;2023-07-13T00:54:04;6.60;;;4.82;;
42912;SDS011;50720;54.324;18.558;2023-07-13T00:56:36;8.95;;;4.85;;
42912;SDS011;50720;54.324;18.558;2023-07-13T00:59:10;8.68;;;4.70;;
42912;SDS011;50720;54.324;18.558;2023-07-13T01:01:41;9.57;;;4.80;;
42912;SDS011;50720;54.324;18.558;2023-07-13T01:04:11;6.63;;;5.47;;
42912;SDS011;50720;54.324;18.558;2023-07-13T01:06:41;9.75;;;4.72;;
42912;SDS011;50720;54.324;18.558;2023-07-13T01:09:12;8.05;;;5.13;;
42912;SDS011;50720;54.324;18.558;2023-07-13T01:11:43;12.55;;;4.85;;
42912;SDS011;50720;54.324;18.558;2023-07-13T01:14:15;13.38;;;5.05;;
42912;SDS011;50720;54.324;18.558;2023-07-13T01:16:45;9.23;;;4.07;;
42912;SDS011;50720;54.324;18.558;2023-07-13T01:19:20;7.88;;;4.40;;
42912;SDS011;50720;54.324;18.558;2023-07-13T01:24:28;5.70;;;3.83;;
42912;SDS011;50720;54.324;18.558;2023-07-13T01:26:58;8.23;;;4.80;;
42912;SDS011;50720;54.324;18.558;2023-07-13T01:29:30;8.30;;;4.63;;
42912;SDS011;50720;54.324;18.558;2023-07-13T01:32:00;7.75;;;4.88;;
42912;SDS011;50720;54.324;18.558;2023-07-13T01:34:30;6.63;;;4.10;;
42912;SDS011;50720;54.324;18.558;2023-07-13T01:37:00;6.82;;;4.88;;
42912;SDS011;50720;54.324;18.558;2023-07-13T01:39:31;8.83;;;4.97;;
42912;SDS011;50720;54.324;18.558;2023-07-13T01:42:01;10.23;;;5.35;;
42912;SDS011;50720;54.324;18.558;2023-07-13T01:44:31;10.40;;;5.43;;
42912;SDS011;50720;54.324;18.558;2023-07-13T01:47:01;8.85;;;5.63;;
42912;SDS011;50720;54.324;18.558;2023-07-13T01:49:31;17.50;;;6.95;;
42912;SDS011;50720;54.324;18.558;2023-07-13T01:52:01;7.22;;;4.70;;
42912;SDS011;50720;54.324;18.558;2023-07-13T01:54:32;8.10;;;4.90;;
42912;SDS011;50720;54.324;18.558;2023-07-13T01:57:02;11.88;;;5.82;;
42912;SDS011;50720;54.324;18.558;2023-07-13T01:59:32;10.02;;;5.32;;
42912;SDS011;50720;54.324;18.558;2023-07-13T02:02:02;10.30;;;5.45;;
42912;SDS011;50720;54.324;18.558;2023-07-13T02:04:32;10.20;;;5.55;;
42912;SDS011;50720;54.324;18.558;2023-07-13T02:07:03;10.20;;;5.28;;
42912;SDS011;50720;54.324;18.558;2023-07-13T02:09:34;6.90;;;4.72;;
42912;SDS011;50720;54.324;18.558;2023-07-13T02:12:04;9.77;;;5.40;;
42912;SDS011;50720;54.324;18.558;2023-07-13T02:14:35;8.32;;;5.32;;
42912;SDS011;50720;54.324;18.558;2023-07-13T02:17:05;7.28;;;5.25;;
42912;SDS011;50720;54.324;18.558;2023-07-13T02:19:35;8.35;;;5.47;;
42912;SDS011;50720;54.324;18.558;2023-07-13T02:22:05;10.88;;;5.93;;
42912;SDS011;50720;54.324;18.558;2023-07-13T02:24:37;12.15;;;5.47;;
42912;SDS011;50720;54.324;18.558;2023-07-13T02:27:06;13.23;;;6.53;;
42912;SDS011;50720;54.324;18.558;2023-07-13T02:29:36;7.33;;;5.17;;
42912;SDS011;50720;54.324;18.558;2023-07-13T02:32:06;8.23;;;5.15;;
42912;SDS011;50720;54.324;18.558;2023-07-13T02:37:06;9.82;;;5.88;;
42912;SDS011;50720;54.324;18.558;2023-07-13T02:39:37;12.17;;;5.70;;
42912;SDS011;50720;54.324;18.558;2023-07-13T02:42:07;7.43;;;4.82;;
42912;SDS011;50720;54.324;18.558;2023-07-13T02:44:37;5.80;;;4.50;;
42912;SDS011;50720;54.324;18.558;2023-07-13T02:47:06;9.57;;;4.97;;
42912;SDS011;50720;54.324;18.558;2023-07-13T02:49:36;14.85;;;5.57;;
42912;SDS011;50720;54.324;18.558;2023-07-13T02:52:06;6.82;;;4.35;;
42912;SDS011;50720;54.324;18.558;2023-07-13T02:54:38;13.35;;;5.50;;
42912;SDS011;50720;54.324;18.558;2023-07-13T02:57:07;13.55;;;5.38;;
42912;SDS011;50720;54.324;18.558;2023-07-13T02:59:37;11.68;;;5.55;;
42912;SDS011;50720;54.324;18.558;2023-07-13T03:02:07;12.32;;;5.47;;
42912;SDS011;50720;54.324;18.558;2023-07-13T03:04:37;11.02;;;5.80;;
42912;SDS011;50720;54.324;18.558;2023-07-13T03:09:39;11.52;;;4.72;;
42912;SDS011;50720;54.324;18.558;2023-07-13T03:12:09;12.35;;;5.80;;
42912;SDS011;50720;54.324;18.558;2023-07-13T03:14:39;9.45;;;4.57;;
42912;SDS011;50720;54.324;18.558;2023-07-13T03:17:08;9.65;;;5.07;;
42912;SDS011;50720;54.324;18.558;2023-07-13T03:19:39;7.68;;;5.20;;
42912;SDS011;50720;54.324;18.558;2023-07-13T03:22:09;10.30;;;5.28;;
42912;SDS011;50720;54.324;18.558;2023-07-13T03:24:40;10.75;;;5.75;;
42912;SDS011;50720;54.324;18.558;2023-07-13T03:27:10;20.40;;;5.70;;
42912;SDS011;50720;54.324;18.558;2023-07-13T03:29:40;10.20;;;5.13;;
42912;SDS011;50720;54.324;18.558;2023-07-13T03:32:10;14.35;;;5.95;;
42912;SDS011;50720;54.324;18.558;2023-07-13T03:34:40;13.60;;;4.93;;
42912;SDS011;50720;54.324;18.558;2023-07-13T03:37:09;11.53;;;4.50;;
42912;SDS011;50720;54.324;18.558;2023-07-13T03:39:41;6.40;;;4.05;;
42912;SDS011;50720;54.324;18.558;2023-07-13T03:42:11;10.18;;;4.47;;
42912;SDS011;50720;54.324;18.558;2023-07-13T03:44:41;10.97;;;4.40;;
42912;SDS011;50720;54.324;18.558;2023-07-13T03:47:16;10.38;;;4.57;;
42912;SDS011;50720;54.324;18.558;2023-07-13T03:49:47;11.23;;;5.70;;
42912;SDS011;50720;54.324;18.558;2023-07-13T03:52:16;10.45;;;4.55;;
42912;SDS011;50720;54.324;18.558;2023-07-13T03:54:48;15.40;;;5.05;;
42912;SDS011;50720;54.324;18.558;2023-07-13T03:57:18;9.82;;;4.40;;
42912;SDS011;50720;54.324;18.558;2023-07-13T03:59:48;4.90;;;3.67;;
42912;SDS011;50720;54.324;18.558;2023-07-13T04:02:18;6.82;;;4.32;;
42912;SDS011;50720;54.324;18.558;2023-07-13T04:04:48;9.05;;;4.65;;
42912;SDS011;50720;54.324;18.558;2023-07-13T04:07:17;15.93;;;4.97;;
42912;SDS011;50720;54.324;18.558;2023-07-13T04:09:49;14.40;;;4.13;;
42912;SDS011;50720;54.324;18.558;2023-07-13T04:12:19;13.30;;;3.95;;
42912;SDS011;50720;54.324;18.558;2023-07-13T04:14:49;8.35;;;3.65;;
42912;SDS011;50720;54.324;18.558;2023-07-13T04:17:18;9.40;;;4.32;;
42912;SDS011;50720;54.324;18.558;2023-07-13T04:19:48;11.27;;;3.90;;
42912;SDS011;50720;54.324;18.558;2023-07-13T04:22:18;8.60;;;3.72;;
42912;SDS011;50720;54.324;18.558;2023-07-13T04:24:50;9.80;;;4.22;;
42912;SDS011;50720;54.324;18.558;2023-07-13T04:27:19;7.80;;;3.90;;
42912;SDS011;50720;54.324;18.558;2023-07-13T04:29:52;11.52;;;3.95;;
42912;SDS011;50720;54.324;18.558;2023-07-13T04:32:22;7.53;;;3.35;;
42912;SDS011;50720;54.324;18.558;2023-07-13T04:34:52;14.20;;;5.63;;
42912;SDS011;50720;54.324;18.558;2023-07-13T04:37:23;11.50;;;4.35;;
42912;SDS011;50720;54.324;18.558;2023-07-13T04:39:54;9.90;;;3.55;;
42912;SDS011;50720;54.324;18.558;2023-07-13T04:42:25;7.65;;;3.10;;
42912;SDS011;50720;54.324;18.558;2023-07-13T04:44:55;7.25;;;3.30;;
42912;SDS011;50720;54.324;18.558;2023-07-13T04:47:25;11.32;;;5.20;;
42912;SDS011;50720;54.324;18.558;2023-07-13T04:49:55;12.30;;;3.88;;
42912;SDS011;50720;54.324;18.558;2023-07-13T04:52:24;10.10;;;3.33;;
42912;SDS011;50720;54.324;18.558;2023-07-13T04:54:56;9.68;;;3.45;;
42912;SDS011;50720;54.324;18.558;2023-07-13T04:57:26;11.15;;;3.15;;
42912;SDS011;50720;54.324;18.558;2023-07-13T04:59:56;10.45;;;3.60;;
42912;SDS011;50720;54.324;18.558;2023-07-13T05:02:28;5.00;;;3.05;;
42912;SDS011;50720;54.324;18.558;2023-07-13T05:04:59;7.82;;;3.03;;
42912;SDS011;50720;54.324;18.558;2023-07-13T05:07:30;9.70;;;3.20;;
42912;SDS011;50720;54.324;18.558;2023-07-13T05:10:03;10.15;;;3.83;;
42912;SDS011;50720;54.324;18.558;2023-07-13T05:12:33;9.65;;;3.00;;
42912;SDS011;50720;54.324;18.558;2023-07-13T05:15:04;9.23;;;4.30;;
42912;SDS011;50720;54.324;18.558;2023-07-13T05:17:34;5.75;;;2.60;;
42912;SDS011;50720;54.324;18.558;2023-07-13T05:20:07;12.90;;;3.45;;
42912;SDS011;50720;54.324;18.558;2023-07-13T05:22:37;10.48;;;2.45;;
42912;SDS011;50720;54.324;18.558;2023-07-13T05:25:09;4.53;;;2.28;;
42912;SDS011;50720;54.324;18.558;2023-07-13T05:27:39;6.03;;;2.58;;
42912;SDS011;50720;54.324;18.558;2023-07-13T05:30:09;9.05;;;2.83;;
42912;SDS011;50720;54.324;18.558;2023-07-13T05:32:39;7.40;;;2.50;;
42912;SDS011;50720;54.324;18.558;2023-07-13T05:35:09;11.50;;;3.15;;
42912;SDS011;50720;54.324;18.558;2023-07-13T05:37:39;8.07;;;2.83;;
42912;SDS011;50720;54.324;18.558;2023-07-13T05:40:11;7.15;;;2.40;;
42912;SDS011;50720;54.324;18.558;2023-07-13T05:42:40;8.88;;;1.80;;
42912;SDS011;50720;54.324;18.558;2023-07-13T05:45:10;7.55;;;2.22;;
42912;SDS011;50720;54.324;18.558;2023-07-13T05:47:40;5.45;;;2.00;;
42912;SDS011;50720;54.324;18.558;2023-07-13T05:50:11;9.57;;;2.28;;
42912;SDS011;50720;54.324;18.558;2023-07-13T05:52:43;9.88;;;2.70;;
42912;SDS011;50720;54.324;18.558;2023-07-13T05:55:14;10.48;;;2.15;;
42912;SDS011;50720;54.324;18.558;2023-07-13T05:57:44;4.95;;;1.88;;
42912;SDS011;50720;54.324;18.558;2023-07-13T06:02:44;6.72;;;1.95;;
42912;SDS011;50720;54.324;18.558;2023-07-13T06:05:14;3.80;;;1.45;;
42912;SDS011;50720;54.324;18.558;2023-07-13T06:07:44;6.43;;;2.23;;
42912;SDS011;50720;54.324;18.558;2023-07-13T06:10:15;5.93;;;2.08;;
42912;SDS011;50720;54.324;18.558;2023-07-13T06:12:45;8.27;;;1.90;;
42912;SDS011;50720;54.324;18.558;2023-07-13T06:15:15;8.52;;;2.17;;
42912;SDS011;50720;54.324;18.558;2023-07-13T06:17:45;8.83;;;2.23;;
42912;SDS011;50720;54.324;18.558;2023-07-13T06:20:15;4.07;;;1.73;;
42912;SDS011;50720;54.324;18.558;2023-07-13T06:22:45;8.93;;;2.30;;
42912;SDS011;50720;54.324;18.558;2023-07-13T06:25:16;5.53;;;1.80;;
42912;SDS011;50720;54.324;18.558;2023-07-13T06:27:46;5.55;;;1.45;;
42912;SDS011;50720;54.324;18.558;2023-07-13T06:30:16;5.43;;;1.70;;
42912;SDS011;50720;54.324;18.558;2023-07-13T06:32:46;3.40;;;1.83;;
42912;SDS011;50720;54.324;18.558;2023-07-13T06:37:46;6.40;;;1.90;;
42912;SDS011;50720;54.324;18.558;2023-07-13T06:40:17;3.85;;;1.23;;
42912;SDS011;50720;54.324;18.558;2023-07-13T06:42:47;4.72;;;1.65;;
42912;SDS011;50720;54.324;18.558;2023-07-13T06:45:17;5.90;;;2.47;;
42912;SDS011;50720;54.324;18.558;2023-07-13T06:47:46;4.63;;;1.83;;
42912;SDS011;50720;54.324;18.558;2023-07-13T06:50:17;8.05;;;1.70;;
42912;SDS011;50720;54.324;18.558;2023-07-13T06:52:47;6.28;;;1.83;;
42912;SDS011;50720;54.324;18.558;2023-07-13T06:55:19;3.13;;;0.95;;
42912;SDS011;50720;54.324;18.558;2023-07-13T06:57:48;7.05;;;1.95;;
42912;SDS011;50720;54.324;18.558;2023-07-13T07:00:19;4.75;;;1.63;;
42912;SDS011;50720;54.324;18.558;2023-07-13T07:02:49;6.78;;;2.35;;
42912;SDS011;50720;54.324;18.558;2023-07-13T07:05:21;5.88;;;1.80;;
42912;SDS011;50720;54.324;18.558;2023-07-13T07:10:25;5.93;;;1.40;;
42912;SDS011;50720;54.324;18.558;2023-07-13T07:12:54;2.92;;;1.00;;
42912;SDS011;50720;54.324;18.558;2023-07-13T07:15:25;3.90;;;1.63;;
42912;SDS011;50720;54.324;18.558;2023-07-13T07:17:55;4.53;;;1.33;;
42912;SDS011;50720;54.324;18.558;2023-07-13T07:22:55;6.03;;;1.52;;
42912;SDS011;50720;54.324;18.558;2023-07-13T07:25:26;8.23;;;1.60;;
42912;SDS011;50720;54.324;18.558;2023-07-13T07:27:59;7.57;;;1.98;;
42912;SDS011;50720;54.324;18.558;2023-07-13T07:30:31;5.45;;;1.70;;
42912;SDS011;50720;54.324;18.558;2023-07-13T07:33:04;3.72;;;1.73;;
42912;SDS011;50720;54.324;18.558;2023-07-13T07:35:34;4.97;;;1.55;;
42912;SDS011;50720;54.324;18.558;2023-07-13T07:38:24;3.83;;;1.27;;
42912;SDS011;50720;54.324;18.558;2023-07-13T07:40:56;3.58;;;1.00;;
42912;SDS011;50720;54.324;18.558;2023-07-13T07:43:28;6.65;;;1.25;;
42912;SDS011;50720;54.324;18.558;2023-07-13T07:45:59;6.68;;;1.55;;
42912;SDS011;50720;54.324;18.558;2023-07-13T07:48:29;3.33;;;1.58;;
42912;SDS011;50720;54.324;18.558;2023-07-13T07:53:29;3.17;;;1.30;;
42912;SDS011;50720;54.324;18.558;2023-07-13T07:56:02;2.90;;;1.13;;
42912;SDS011;50720;54.324;18.558;2023-07-13T07:58:52;4.90;;;1.30;;
42912;SDS011;50720;54.324;18.558;2023-07-13T08:01:25;5.45;;;1.27;;
42912;SDS011;50720;54.324;18.558;2023-07-13T08:03:58;8.27;;;1.10;;
42912;SDS011;50720;54.324;18.558;2023-07-13T08:06:31;5.50;;;1.17;;
42912;SDS011;50720;54.324;18.558;2023-07-13T08:09:04;5.65;;;1.30;;
42912;SDS011;50720;54.324;18.558;2023-07-13T08:11:37;3.67;;;1.20;;
42912;SDS011;50720;54.324;18.558;2023-07-13T08:14:09;7.35;;;1.67;;
42912;SDS011;50720;54.324;18.558;2023-07-13T08:16:39;4.53;;;1.50;;
42912;SDS011;50720;54.324;18.558;2023-07-13T08:19:09;3.53;;;1.20;;
42912;SDS011;50720;54.324;18.558;2023-07-13T08:21:39;4.63;;;1.33;;
42912;SDS011;50720;54.324;18.558;2023-07-13T08:24:10;3.28;;;0.80;;
42912;SDS011;50720;54.324;18.558;2023-07-13T08:29:11;5.93;;;0.88;;
42912;SDS011;50720;54.324;18.558;2023-07-13T08:31:41;5.57;;;1.17;;
42912;SDS011;50720;54.324;18.558;2023-07-13T08:36:44;6.60;;;1.63;;
42912;SDS011;50720;54.324;18.558;2023-07-13T08:39:13;2.88;;;1.30;;
42912;SDS011;50720;54.324;18.558;2023-07-13T08:41:45;5.93;;;1.15;;
42912;SDS011;50720;54.324;18.558;2023-07-13T08:44:20;3.67;;;1.20;;
42912;SDS011;50720;54.324;18.558;2023-07-13T08:47:00;5.05;;;1.20;;
42912;SDS011;50720;54.324;18.558;2023-07-13T08:49:30;2.45;;;0.82;;
42912;SDS011;50720;54.324;18.558;2023-07-13T08:52:04;4.35;;;0.95;;
42912;SDS011;50720;54.324;18.558;2023-07-13T08:54:42;3.00;;;0.70;;
42912;SDS011;50720;54.324;18.558;2023-07-13T08:57:18;1.50;;;0.90;;
42912;SDS011;50720;54.324;18.558;2023-07-13T08:59:49;4.13;;;1.25;;
42912;SDS011;50720;54.324;18.558;2023-07-13T09:04:56;5.28;;;0.88;;
42912;SDS011;50720;54.324;18.558;2023-07-13T09:07:35;4.30;;;1.60;;
42912;SDS011;50720;54.324;18.558;2023-07-13T09:10:14;4.90;;;1.45;;
42912;SDS011;50720;54.324;18.558;2023-07-13T09:12:50;4.95;;;1.13;;
42912;SDS011;50720;54.324;18.558;2023-07-13T09:15:28;4.93;;;1.30;;
42912;SDS011;50720;54.324;18.558;2023-07-13T09:18:01;1.40;;;1.00;;
42912;SDS011;50720;54.324;18.558;2023-07-13T09:20:37;4.43;;;1.15;;
42912;SDS011;50720;54.324;18.558;2023-07-13T09:23:13;2.58;;;0.70;;
42912;SDS011;50720;54.324;18.558;2023-07-13T09:25:45;6.53;;;1.30;;
42912;SDS011;50720;54.324;18.558;2023-07-13T09:28:24;2.60;;;1.70;;
42912;SDS011;50720;54.324;18.558;2023-07-13T09:31:00;5.28;;;1.13;;
42912;SDS011;50720;54.324;18.558;2023-07-13T09:33:34;3.15;;;0.98;;
42912;SDS011;50720;54.324;18.558;2023-07-13T09:36:08;2.97;;;1.08;;
42912;SDS011;50720;54.324;18.558;2023-07-13T09:38:48;4.18;;;0.75;;
42912;SDS011;50720;54.324;18.558;2023-07-13T09:41:36;3.42;;;1.20;;
42912;SDS011;50720;54.324;18.558;2023-07-13T09:46:51;3.03;;;1.00;;
42912;SDS011;50720;54.324;18.558;2023-07-13T09:49:23;5.72;;;1.98;;
42912;SDS011;50720;54.324;18.558;2023-07-13T09:51:57;4.32;;;0.98;;
42912;SDS011;50720;54.324;18.558;2023-07-13T09:54:29;5.55;;;1.20;;
42912;SDS011;50720;54.324;18.558;2023-07-13T09:57:02;4.68;;;1.20;;
42912;SDS011;50720;54.324;18.558;2023-07-13T09:59:42;3.45;;;0.95;;
42912;SDS011;50720;54.324;18.558;2023-07-13T10:05:04;3.67;;;0.93;;
42912;SDS011;50720;54.324;18.558;2023-07-13T10:07:37;1.80;;;1.08;;
42912;SDS011;50720;54.324;18.558;2023-07-13T10:10:13;1.10;;;1.00;;
42912;SDS011;50720;54.324;18.558;2023-07-13T10:12:44;3.78;;;1.30;;
42912;SDS011;50720;54.324;18.558;2023-07-13T10:15:17;6.47;;;1.83;;
42912;SDS011;50720;54.324;18.558;2023-07-13T10:17:51;1.70;;;0.70;;
42912;SDS011;50720;54.324;18.558;2023-07-13T10:20:26;7.25;;;0.80;;
42912;SDS011;50720;54.324;18.558;2023-07-13T10:22:57;4.80;;;1.25;;
42912;SDS011;50720;54.324;18.558;2023-07-13T10:25:31;6.30;;;1.17;;
42912;SDS011;50720;54.324;18.558;2023-07-13T10:28:14;2.55;;;1.05;;
42912;SDS011;50720;54.324;18.558;2023-07-13T10:31:10;6.68;;;1.42;;
42912;SDS011;50720;54.324;18.558;2023-07-13T10:33:42;5.40;;;1.23;;
42912;SDS011;50720;54.324;18.558;2023-07-13T10:36:14;3.90;;;0.85;;
42912;SDS011;50720;54.324;18.558;2023-07-13T10:38:51;2.67;;;1.02;;
42912;SDS011;50720;54.324;18.558;2023-07-13T10:41:22;5.47;;;1.00;;
42912;SDS011;50720;54.324;18.558;2023-07-13T10:43:55;3.83;;;0.77;;
42912;SDS011;50720;54.324;18.558;2023-07-13T10:46:28;1.80;;;0.80;;
42912;SDS011;50720;54.324;18.558;2023-07-13T10:48:59;5.82;;;0.90;;
42912;SDS011;50720;54.324;18.558;2023-07-13T10:51:33;5.25;;;0.70;;
42912;SDS011;50720;54.324;18.558;2023-07-13T10:54:11;1.73;;;0.50;;
42912;SDS011;50720;54.324;18.558;2023-07-13T10:59:37;4.07;;;1.13;;
42912;SDS011;50720;54.324;18.558;2023-07-13T11:02:13;5.38;;;1.08;;
42912;SDS011;50720;54.324;18.558;2023-07-13T11:04:51;3.60;;;0.77;;
42912;SDS011;50720;54.324;18.558;2023-07-13T11:07:24;3.83;;;0.77;;
42912;SDS011;50720;54.324;18.558;2023-07-13T11:09:56;3.95;;;1.05;;
42912;SDS011;50720;54.324;18.558;2023-07-13T11:12:28;4.28;;;0.98;;
42912;SDS011;50720;54.324;18.558;2023-07-13T11:15:26;5.15;;;0.80;;
42912;SDS011;50720;54.324;18.558;2023-07-13T11:18:21;5.65;;;1.60;;
42912;SDS011;50720;54.324;18.558;2023-07-13T11:20:52;4.30;;;0.70;;
42912;SDS011;50720;54.324;18.558;2023-07-13T11:24:01;5.80;;;0.60;;
42912;SDS011;50720;54.324;18.558;2023-07-13T11:26:39;3.63;;;0.80;;
42912;SDS011;50720;54.324;18.558;2023-07-13T11:29:14;3.83;;;1.38;;
42912;SDS011;50720;54.324;18.558;2023-07-13T11:31:56;2.53;;;0.80;;
42912;SDS011;50720;54.324;18.558;2023-07-13T11:34:30;3.17;;;1.00;;
42912;SDS011;50720;54.324;18.558;2023-07-13T11:37:03;1.75;;;0.98;;
42912;SDS011;50720;54.324;18.558;2023-07-13T11:39:42;2.17;;;1.05;;
42912;SDS011;50720;54.324;18.558;2023-07-13T11:42:16;2.67;;;0.77;;
42912;SDS011;50720;54.324;18.558;2023-07-13T11:44:48;3.00;;;1.02;;
42912;SDS011;50720;54.324;18.558;2023-07-13T11:47:39;4.07;;;1.23;;
42912;SDS011;50720;54.324;18.558;2023-07-13T11:50:19;3.72;;;1.10;;
42912;SDS011;50720;54.324;18.558;2023-07-13T11:52:50;7.03;;;1.40;;
42912;SDS011;50720;54.324;18.558;2023-07-13T11:55:23;6.70;;;1.45;;
42912;SDS011;50720;54.324;18.558;2023-07-13T11:57:54;5.20;;;1.30;;
42912;SDS011;50720;54.324;18.558;2023-07-13T12:00:28;4.78;;;1.60;;
42912;SDS011;50720;54.324;18.558;2023-07-13T12:03:01;5.68;;;1.33;;
42912;SDS011;50720;54.324;18.558;2023-07-13T12:05:35;3.58;;;1.38;;
42912;SDS011;50720;54.324;18.558;2023-07-13T12:08:08;3.70;;;1.20;;
42912;SDS011;50720;54.324;18.558;2023-07-13T12:10:56;4.28;;;1.13;;
42912;SDS011;50720;54.324;18.558;2023-07-13T12:13:27;2.95;;;0.75;;
42912;SDS011;50720;54.324;18.558;2023-07-13T12:15:58;5.72;;;1.95;;
42912;SDS011;50720;54.324;18.558;2023-07-13T12:18:29;4.22;;;1.27;;
42912;SDS011;50720;54.324;18.558;2023-07-13T12:21:03;3.33;;;1.33;;
42912;SDS011;50720;54.324;18.558;2023-07-13T12:23:34;3.75;;;0.80;;
42912;SDS011;50720;54.324;18.558;2023-07-13T12:26:05;5.07;;;1.25;;
42912;SDS011;50720;54.324;18.558;2023-07-13T12:28:37;2.47;;;1.00;;
42912;SDS011;50720;54.324;18.558;2023-07-13T12:31:22;6.65;;;1.60;;
42912;SDS011;50720;54.324;18.558;2023-07-13T12:33:58;6.07;;;1.58;;
42912;SDS011;50720;54.324;18.558;2023-07-13T12:36:33;3.92;;;1.50;;
42912;SDS011;50720;54.324;18.558;2023-07-13T12:39:10;5.82;;;1.75;;
42912;SDS011;50720;54.324;18.558;2023-07-13T12:41:44;6.22;;;1.40;;
42912;SDS011;50720;54.324;18.558;2023-07-13T12:46:52;6.88;;;1.70;;
42912;SDS011;50720;54.324;18.558;2023-07-13T12:49:26;11.38;;;1.77;;
42912;SDS011;50720;54.324;18.558;2023-07-13T12:51:59;3.22;;;1.23;;
42912;SDS011;50720;54.324;18.558;2023-07-13T12:54:30;5.88;;;1.95;;
42912;SDS011;50720;54.324;18.558;2023-07-13T12:57:02;3.60;;;1.17;;
42912;SDS011;50720;54.324;18.558;2023-07-13T12:59:36;5.60;;;1.42;;
42912;SDS011;50720;54.324;18.558;2023-07-13T13:02:17;29.30;;;4.57;;
42912;SDS011;50720;54.324;18.558;2023-07-13T13:04:55;5.35;;;1.10;;
42912;SDS011;50720;54.324;18.558;2023-07-13T13:07:28;3.25;;;1.10;;
42912;SDS011;50720;54.324;18.558;2023-07-13T13:09:57;2.25;;;0.90;;
42912;SDS011;50720;54.324;18.558;2023-07-13T13:12:27;1.77;;;0.82;;
42912;SDS011;50720;54.324;18.558;2023-07-13T13:14:57;5.20;;;1.02;;
42912;SDS011;50720;54.324;18.558;2023-07-13T13:17:29;2.72;;;1.15;;
42912;SDS011;50720;54.324;18.558;2023-07-13T13:20:00;4.25;;;1.25;;
42912;SDS011;50720;54.324;18.558;2023-07-13T13:22:32;4.35;;;1.20;;
42912;SDS011;50720;54.324;18.558;2023-07-13T13:25:01;3.03;;;1.15;;
42912;SDS011;50720;54.324;18.558;2023-07-13T13:27:33;4.93;;;1.50;;
42912;SDS011;50720;54.324;18.558;2023-07-13T13:30:03;2.85;;;1.23;;
42912;SDS011;50720;54.324;18.558;2023-07-13T13:32:41;2.47;;;0.88;;
42912;SDS011;50720;54.324;18.558;2023-07-13T13:35:12;7.35;;;1.70;;
42912;SDS011;50720;54.324;18.558;2023-07-13T13:37:45;3.95;;;0.98;;
42912;SDS011;50720;54.324;18.558;2023-07-13T13:40:17;3.75;;;1.17;;
42912;SDS011;50720;54.324;18.558;2023-07-13T13:42:50;4.10;;;0.98;;
42912;SDS011;50720;54.324;18.558;2023-07-13T13:45:21;4.35;;;1.00;;
42912;SDS011;50720;54.324;18.558;2023-07-13T13:47:52;3.08;;;0.82;;
42912;SDS011;50720;54.324;18.558;2023-07-13T13:50:23;3.40;;;0.95;;
42912;SDS011;50720;54.324;18.558;2023-07-13T13:52:54;7.75;;;1.25;;
42912;SDS011;50720;54.324;18.558;2023-07-13T13:55:24;4.07;;;0.90;;
42912;SDS011;50720;54.324;18.558;2023-07-13T13:57:55;3.70;;;1.05;;
42912;SDS011;50720;54.324;18.558;2023-07-13T14:00:24;4.95;;;0.88;;
42912;SDS011;50720;54.324;18.558;2023-07-13T14:02:54;1.95;;;0.82;;
42912;SDS011;50720;54.324;18.558;2023-07-13T14:05:25;3.03;;;1.48;;
42912;SDS011;50720;54.324;18.558;2023-07-13T14:07:57;3.17;;;0.88;;
42912;SDS011;50720;54.324;18.558;2023-07-13T14:10:27;4.32;;;0.93;;
42912;SDS011;50720;54.324;18.558;2023-07-13T14:15:27;5.65;;;1.02;;
42912;SDS011;50720;54.324;18.558;2023-07-13T14:17:59;5.53;;;1.17;;
42912;SDS011;50720;54.324;18.558;2023-07-13T14:20:29;3.13;;;0.88;;
42912;SDS011;50720;54.324;18.558;2023-07-13T14:23:01;6.55;;;1.08;;
42912;SDS011;50720;54.324;18.558;2023-07-13T14:25:30;7.70;;;1.23;;
42912;SDS011;50720;54.324;18.558;2023-07-13T14:28:04;6.13;;;1.08;;
42912;SDS011;50720;54.324;18.558;2023-07-13T14:30:47;3.60;;;1.50;;
42912;SDS011;50720;54.324;18.558;2023-07-13T14:33:18;2.63;;;0.90;;
42912;SDS011;50720;54.324;18.558;2023-07-13T14:35:48;5.68;;;1.02;;
42912;SDS011;50720;54.324;18.558;2023-07-13T14:38:21;2.72;;;0.70;;
42912;SDS011;50720;54.324;18.558;2023-07-13T14:40:51;4.03;;;0.90;;
42912;SDS011;50720;54.324;18.558;2023-07-13T14:43:21;2.30;;;0.82;;
42912;SDS011;50720;54.324;18.558;2023-07-13T14:45:51;4.68;;;0.70;;
42912;SDS011;50720;54.324;18.558;2023-07-13T14:48:23;2.72;;;1.17;;
42912;SDS011;50720;54.324;18.558;2023-07-13T14:50:55;7.93;;;0.68;;
42912;SDS011;50720;54.324;18.558;2023-07-13T14:53:27;5.60;;;1.25;;
42912;SDS011;50720;54.324;18.558;2023-07-13T14:55:57;9.82;;;1.20;;
42912;SDS011;50720;54.324;18.558;2023-07-13T14:58:27;5.00;;;0.80;;
42912;SDS011;50720;54.324;18.558;2023-07-13T15:00:59;5.60;;;1.40;;
42912;SDS011;50720;54.324;18.558;2023-07-13T15:05:58;4.03;;;1.27;;
42912;SDS011;50720;54.324;18.558;2023-07-13T15:08:31;4.32;;;1.05;;
42912;SDS011;50720;54.324;18.558;2023-07-13T15:11:02;3.58;;;0.80;;
42912;SDS011;50720;54.324;18.558;2023-07-13T15:13:32;4.80;;;1.20;;
42912;SDS011;50720;54.324;18.558;2023-07-13T15:16:02;6.80;;;1.30;;
42912;SDS011;50720;54.324;18.558;2023-07-13T15:18:32;4.70;;;1.10;;
42912;SDS011;50720;54.324;18.558;2023-07-13T15:21:02;3.60;;;0.50;;
42912;SDS011;50720;54.324;18.558;2023-07-13T15:23:36;3.83;;;0.95;;
42912;SDS011;50720;54.324;18.558;2023-07-13T15:26:07;5.57;;;1.17;;
42912;SDS011;50720;54.324;18.558;2023-07-13T15:28:41;3.67;;;1.00;;
42912;SDS011;50720;54.324;18.558;2023-07-13T15:31:17;5.70;;;0.90;;
42912;SDS011;50720;54.324;18.558;2023-07-13T15:33:49;2.67;;;1.13;;
42912;SDS011;50720;54.324;18.558;2023-07-13T15:36:20;7.57;;;1.63;;
42912;SDS011;50720;54.324;18.558;2023-07-13T15:38:53;5.00;;;1.20;;
42912;SDS011;50720;54.324;18.558;2023-07-13T15:41:25;4.90;;;0.90;;
42912;SDS011;50720;54.324;18.558;2023-07-13T15:43:57;5.45;;;0.98;;
42912;SDS011;50720;54.324;18.558;2023-07-13T15:46:27;6.68;;;0.80;;